• Join FlightAware (Why Join?)
  • Login
  • US Flag 
04:36AM EDT


 

Airport Tracker/Info


-or-


 

Live Flight TrackerFlight Track Log ✈ FLG4208 ✈ 14-Jun-2013 ✈ KDTW - KBTV

Flight Track Log - Related Links

Times and Time Zones

All times are in EDT time to prevent confusion due to time zone crossing. See the FLG4208 flight status page for this flight to view local times or setup timezone preferences in your user account.

Time Position Orientation Groundspeed Altitude Reporting Facility
EDT Latitude Longitude Course Direction KTS MPH feet Rate Location/Type
10:16PM 42.1994 -83.3608 90° East 169 194 1,400  Level Cleveland Center
10:17PM 42.1536 -83.3589 178° South 207 238 3,100 1,860 Climbing Cleveland Center
10:18PM 42.0978 -83.3342 162° South 261 300 5,000 1,920 Climbing Cleveland Center
10:19PM 42.2814 -82.9244 71° East  Level FlightAware Approximate
10:19PM 42.0836 -83.2383 101° East 285 328 7,000  Level Cleveland Center
10:20PM 42.3101 -82.7829 75° East  Level FlightAware Approximate
10:21PM 42.3279 -82.6384 82° East  Level FlightAware Approximate
10:21PM 42.1414 -83.0669 66° East 290 334 11,100  Level Cleveland Center
10:22PM 42.3500 -82.4957 90° East  Level FlightAware Approximate
10:22PM 42.2278 -83.0339 16° North 283 326 12,900  Level Cleveland Center
10:23PM 42.2978 -82.9750 32° Northeast 286 329 13,000 780 Climbing Cleveland Center
10:24PM 42.3169 -82.8492 78° East 289 333 14,500 1,440 Climbing Cleveland Center
10:25PM 42.3281 -82.7119 84° East 322 371 15,900 1,380 Climbing Cleveland Center
10:26PM 42.3242 -82.5686 92° East 352 405 17,300 1,200 Climbing Cleveland Center
10:27PM 42.3206 -82.4197 92° East 371 427 18,300 1,020 Climbing Cleveland Center
10:28PM 42.3167 -82.2681 92° East 389 448 19,400 1,080 Climbing Cleveland Center
10:29PM 42.3125 -82.1133 92° East 407 468 20,500 1,080 Climbing Cleveland Center
10:30PM 42.3103 -81.9561 91° East 414 476 21,600 900 Climbing Cleveland Center
10:31PM 42.3056 -81.8156 93° East 420 483 22,400 840 Climbing Cleveland Center
10:32PM 42.2989 -81.6528 93° East 420 483 23,300 900 Climbing Cleveland Center
10:33PM 42.2942 -81.4897 92° East 425 489 24,200 660 Climbing Cleveland Center
10:34PM 42.2889 -81.3269 92° East 425 489 24,700 480 Climbing Cleveland Center
10:35PM 42.2817 -81.1586 93° East 438 504 25,200 480 Climbing Cleveland Center
10:36PM 42.2761 -80.9872 92° East 452 520 25,700 480 Climbing Cleveland Center
10:37PM 42.2683 -80.7964 93° East 457 526 26,200 480 Climbing Cleveland Center
10:38PM 42.2600 -80.6253 94° East 457 526 26,700 480 Climbing Cleveland Center
10:39PM 42.2558 -80.4542 92° East 457 526 27,200 480 Climbing Cleveland Center
10:40PM 42.2681 -80.2831 84° East 454 522 27,700 480 Climbing Cleveland Center
10:41PM 42.3072 -80.1256 71° East 438 504 28,200 480 Climbing Cleveland Center
10:42PM 42.3481 -79.9622 71° East 449 517 28,700 480 Climbing Cleveland Center
10:43PM 42.3825 -79.8017 74° East 449 517 29,200 480 Climbing Cleveland Center
10:44PM 42.4189 -79.6467 72° East 444 511 29,700 480 Climbing Cleveland Center
10:45PM 42.4550 -79.4886 73° East 444 511 30,200 480 Climbing Cleveland Center
10:46PM 42.4889 -79.3442 72° East 444 511 30,700 360 Climbing Cleveland Center
10:47PM 42.5267 -79.1831 72° East 444 511 31,000 120 Climbing Cleveland Center
10:48PM 42.5644 -79.0242 72° East 444 511 31,000  Level Cleveland Center
10:49PM 42.5994 -78.8597 74° East 444 511 31,000  Level Cleveland Center
10:50PM 42.6367 -78.6950 73° East 444 511 31,000  Level Cleveland Center
10:51PM 42.6753 -78.5272 73° East 450 518 31,000  Level Cleveland Center
10:52PM 42.7097 -78.3594 74° East 450 518 31,000  Level Cleveland Center
10:53PM 42.7481 -78.1911 73° East 455 524 31,000  Level Cleveland Center
10:54PM 42.7881 -78.0086 73° East 455 524 31,000  Level Cleveland Center
10:55PM 42.8236 -77.8431 74° East 460 529 31,000  Level Cleveland Center
10:56PM 42.8592 -77.6772 74° East 460 529 31,000  Level Cleveland Center
10:57PM 42.9200 -77.5297 61° Northeast 452 520 31,000  Level Cleveland Center
10:58PM 42.9831 -77.3875 59° Northeast 438 504 31,000  Level Cleveland Center
10:59PM 43.0456 -77.2422 59° Northeast 438 504 31,000  Level Cleveland Center
11:02PM 43.1856 -76.9258 59° Northeast 437 503 31,000  Level Boston Center
11:03PM 43.2475 -76.7792 60° Northeast 437 503 31,000  Level Boston Center
11:04PM 43.3181 -76.6214 58° Northeast 432 497 31,000  Level Boston Center
11:05PM 43.3817 -76.4714 60° Northeast 432 497 31,000  Level Boston Center
11:06PM 43.4450 -76.3269 59° Northeast 432 497 31,000  Level Boston Center
11:07PM 43.5200 -76.1456 60° Northeast 432 497 31,000  Level Boston Center
11:08PM 43.5831 -75.9975 60° Northeast 437 503 31,000  Level Boston Center
11:09PM 43.6378 -75.8428 64° Northeast 437 503 31,000  Level Boston Center
11:10PM 43.7017 -75.6511 65° Northeast 444 511 31,000  Level Boston Center
11:11PM 43.7472 -75.5069 66° East 450 518 31,000  Level Boston Center
11:12PM 43.7994 -75.3428 66° East 455 524 31,000 -300 Level Boston Center
11:13PM 43.8494 -75.1781 67° East 460 529 30,500 -1,500 Descending Boston Center
11:14PM 43.9011 -75.0192 66° East 454 522 28,100 -2,400 Descending Boston Center
11:15PM 43.9481 -74.8681 67° East 438 504 25,800 -2,160 Descending Boston Center
11:16PM 43.9950 -74.7172 67° East 432 497 23,800 -2,040 Descending Boston Center
11:17PM 44.0439 -74.5631 66° East 432 497 21,800 -1,800 Descending Boston Center
11:18PM 44.0814 -74.4400 67° East 432 497 20,200 -2,100 Descending Boston Center
11:19PM 44.1364 -74.2597 67° East 432 497 17,700 -2,400 Descending Boston Center
11:20PM 44.1847 -74.1106 66° East 410 472 15,400 -2,100 Descending Boston Center
11:21PM 44.2261 -73.9728 67° East 386 444 13,500 -1,740 Descending Boston Center
11:22PM 44.2608 -73.8606 67° East 386 444 12,000 -1,560 Descending Boston Center
11:23PM 44.3167 -73.7342 58° Northeast 345 397 10,400 -1,560 Descending Boston Center
11:24PM 44.3592 -73.6392 58° Northeast 296 341 8,900 -1,560 Descending Boston Center
11:25PM 44.3997 -73.5528 57° Northeast 271 312 7,300 -1,680 Descending Boston Center
11:26PM 44.4381 -73.4664 58° Northeast 261 300 5,600 -1,500 Descending Boston Center
11:27PM 44.4742 -73.3856 58° Northeast 256 295 4,300 -1,320 Descending Boston Center